Time;durP1;ratioP1;P1;durP2;ratioP2;P2;SDS_P1;SDS_P2;PMS_P1;PMS_P2;Temp;Humidity;BMP_temperature;BMP_pressure;BME280_temperature;BME280_humidity;BME280_pressure;Samples;Min_cycle;Max_cycle;Signal;HPM_P1;HPM_P2
2022/12/08 00:00:17;;;;;;;25.40;22.80;;;;;;;5.72;76.50;94750.59;5018160;28;20209;-72
2022/12/08 00:02:45;;;;;;;23.92;21.58;;;;;;;5.67;76.65;94756.28;5017809;28;20190;-73
2022/12/08 00:10:43;;;;;;;22.27;20.08;;;;;;;5.64;76.49;94773.34;5018073;28;20218;-72
2022/12/08 00:13:10;;;;;;;22.50;20.17;;;;;;;5.62;76.13;94763.84;5017866;28;20194;-72
2022/12/08 00:15:37;;;;;;;22.60;20.27;;;;;;;5.61;76.23;94771.25;5018601;28;20213;-73
2022/12/08 00:18:05;;;;;;;22.02;19.73;;;;;;;5.58;76.13;94776.59;5017827;28;20198;-73
2022/12/08 00:20:33;;;;;;;22.33;20.02;;;;;;;5.52;76.09;94775.97;5021040;28;20205;-72
2022/12/08 00:23:00;;;;;;;21.75;19.42;;;;;;;5.48;76.39;94784.03;5021450;28;20207;-72
2022/12/08 00:25:27;;;;;;;21.23;19.08;;;;;;;5.50;76.59;94780.97;5020981;28;20199;-72
2022/12/08 00:27:54;;;;;;;21.88;19.67;;;;;;;5.47;76.22;94781.63;5018017;28;20231;-72
2022/12/08 00:30:21;;;;;;;20.98;18.95;;;;;;;5.43;76.23;94786.94;5018069;28;20225;-72
2022/12/08 00:32:48;;;;;;;21.05;19.02;;;;;;;5.41;76.13;94786.47;5017757;28;20214;-72
2022/12/08 00:35:15;;;;;;;21.50;19.38;;;;;;;5.37;76.03;94787.44;5034103;28;20299;-72
2022/12/08 00:37:44;;;;;;;22.52;20.13;;;;;;;5.26;75.80;94786.97;5018002;28;20194;-72
2022/12/08 00:40:11;;;;;;;21.98;19.77;;;;;;;5.19;75.63;94794.88;5017969;28;20199;-72
2022/12/08 00:42:37;;;;;;;22.52;20.27;;;;;;;5.15;75.55;94785.72;5018237;28;20195;-72
2022/12/08 00:45:06;;;;;;;22.23;20.02;;;;;;;5.13;75.60;94788.00;5019147;28;20194;-72
2022/12/08 00:47:35;;;;;;;22.88;20.58;;;;;;;5.04;75.60;94788.00;5018823;28;20211;-72
2022/12/08 00:50:02;;;;;;;23.77;21.33;;;;;;;4.96;75.73;94786.88;5018207;28;20207;-72
2022/12/08 00:52:30;;;;;;;24.10;21.67;;;;;;;4.92;75.39;94794.13;5019476;28;20207;-72
2022/12/08 00:54:58;;;;;;;22.90;20.60;;;;;;;4.87;75.73;94788.84;5034758;28;20198;-72
2022/12/08 00:57:25;;;;;;;23.08;20.67;;;;;;;4.90;76.47;94782.75;5017942;28;20199;-72
2022/12/08 00:59:51;;;;;;;23.10;20.77;;;;;;;4.90;76.43;94782.75;5019111;28;20249;-72
2022/12/08 01:02:20;;;;;;;22.98;20.67;;;;;;;4.89;76.32;94772.13;5018152;28;20209;-72
2022/12/08 01:04:47;;;;;;;23.75;21.20;;;;;;;4.83;76.28;94788.69;5018983;28;20238;-72
2022/12/08 01:07:13;;;;;;;22.77;20.45;;;;;;;4.87;76.60;94783.38;5017935;28;20221;-72
2022/12/08 01:09:40;;;;;;;22.48;20.27;;;;;;;4.92;76.68;94785.94;5018104;28;20519;-72
2022/12/08 01:12:09;;;;;;;21.52;19.20;;;;;;;5.00;77.19;94778.84;5018356;28;20215;-72
2022/12/08 01:14:36;;;;;;;20.80;18.77;;;;;;;5.11;77.40;94773.84;5018159;28;20187;-72
2022/12/08 01:17:04;;;;;;;21.60;19.50;;;;;;;5.14;76.81;94776.72;5017686;28;20203;-72
2022/12/08 01:19:33;;;;;;;21.15;19.02;;;;;;;5.16;76.60;94773.69;5017628;28;20195;-72
2022/12/08 01:22:00;;;;;;;22.20;19.90;;;;;;;5.16;76.74;94779.16;5018826;28;20186;-72
2022/12/08 01:24:26;;;;;;;21.55;19.52;;;;;;;5.14;76.65;94771.25;5034586;28;20207;-72
2022/12/08 01:26:53;;;;;;;21.60;19.50;;;;;;;5.05;76.29;94779.50;5017177;28;20203;-72
2022/12/08 01:29:22;;;;;;;21.88;19.70;;;;;;;4.97;76.59;94780.28;5035317;28;20250;-72
2022/12/08 01:31:49;;;;;;;21.42;19.23;;;;;;;4.95;76.46;94770.81;5019061;28;20272;-71
2022/12/08 01:34:16;;;;;;;20.25;18.25;;;;;;;5.00;77.28;94765.97;5037285;28;20183;-71
2022/12/08 01:36:43;;;;;;;21.83;19.50;;;;;;;5.04;77.09;94766.94;5020120;28;20198;-71
2022/12/08 01:39:15;;;;;;;20.70;18.60;;;;;;;5.13;77.37;94768.88;5019707;28;20622;-72
2022/12/08 01:41:42;;;;;;;20.58;18.38;;;;;;;5.16;77.08;94765.47;5019614;28;20186;-71
2022/12/08 01:44:45;;;;;;;20.50;18.50;;;;;;;5.18;77.24;94755.00;5036944;28;20540;-71
2022/12/08 01:47:13;;;;;;;22.00;19.73;;;;;;;5.09;76.36;94763.25;5016877;28;20217;-71
2022/12/08 01:49:40;;;;;;;20.35;18.35;;;;;;;5.03;76.16;94757.13;5037157;28;20209;-71
2022/12/08 01:52:11;;;;;;;22.23;19.92;;;;;;;5.00;76.16;94757.78;5019088;28;20218;-71
2022/12/08 01:54:41;;;;;;;20.52;18.60;;;;;;;5.00;76.47;94752.31;5019563;28;20203;-71
2022/12/08 01:57:10;;;;;;;20.58;18.42;;;;;;;4.93;75.99;94748.47;5019170;28;20237;-71
2022/12/08 01:59:40;;;;;;;20.88;18.67;;;;;;;4.89;76.02;94750.25;5020015;28;20208;-71
2022/12/08 02:02:07;;;;;;;21.13;19.13;;;;;;;4.85;76.03;94755.56;5020236;28;20190;-71
2022/12/08 02:04:35;;;;;;;20.52;18.52;;;;;;;4.81;76.27;94754.59;5020085;28;20258;-71
2022/12/08 02:07:03;;;;;;;21.05;19.05;;;;;;;4.75;76.52;94745.75;5019601;28;20202;-71
2022/12/08 02:09:30;;;;;;;21.00;18.85;;;;;;;4.70;75.97;94745.94;5019164;28;20203;-71
2022/12/08 02:11:58;;;;;;;20.15;18.17;;;;;;;4.64;76.17;94741.75;5019881;28;20217;-71
2022/12/08 02:14:25;;;;;;;21.10;19.00;;;;;;;4.63;76.63;94750.28;5018960;28;20205;-71
2022/12/08 02:17:00;;;;;;;20.75;18.73;;;;;;;4.64;76.27;94741.75;5036243;28;20182;-71
2022/12/08 02:20:14;;;;;;;20.65;18.50;;;;;;;4.64;76.46;94736.31;5036640;28;20193;-72
2022/12/08 02:22:51;;;;;;;21.83;19.63;;;;;;;4.60;75.94;94743.53;5013962;28;20206;-71
2022/12/08 02:25:22;;;;;;;20.85;18.77;;;;;;;4.61;76.63;94750.59;5018692;28;20546;-72
2022/12/08 02:28:01;;;;;;;21.42;19.33;;;;;;;4.67;76.88;94743.84;5018535;28;20242;-72
2022/12/08 02:30:33;;;;;;;21.02;18.50;;;;;;;4.68;76.69;94741.91;5018481;28;20614;-72
2022/12/08 02:33:34;;;;;;;19.95;18.00;;;;;;;4.49;76.12;94734.88;5019003;28;20194;-72
2022/12/08 02:36:05;;;;;;;20.42;18.35;;;;;;;4.38;75.84;94744.50;5018109;28;20199;-72
2022/12/08 02:38:46;;;;;;;21.23;19.08;;;;;;;4.40;76.10;94745.00;5018163;28;20198;-71
2022/12/08 02:41:20;;;;;;;19.88;17.98;;;;;;;4.35;76.22;94737.75;5018314;28;20186;-72
2022/12/08 02:43:48;;;;;;;20.50;18.42;;;;;;;4.35;76.44;94739.69;5018703;28;20208;-72
2022/12/08 02:46:19;;;;;;;20.33;18.33;;;;;;;4.38;76.71;94736.31;5018667;28;20207;-72
2022/12/08 02:48:46;;;;;;;20.60;18.60;;;;;;;4.43;77.01;94747.09;5018463;28;20190;-72
2022/12/08 02:51:14;;;;;;;20.23;18.23;;;;;;;4.45;76.84;94730.38;5018395;28;20218;-71
2022/12/08 02:53:41;;;;;;;21.33;19.13;;;;;;;4.41;76.33;94727.50;5018702;28;20206;-71
2022/12/08 02:56:21;;;;;;;20.45;18.45;;;;;;;4.34;75.96;94733.44;5035732;28;20182;-71
2022/12/08 02:59:10;;;;;;;22.08;19.88;;;;;;;4.23;75.65;94726.69;5035897;28;20182;-72
2022/12/08 03:02:02;;;;;;;21.02;19.13;;;;;;;4.11;75.64;94742.91;5018602;28;20206;-72
2022/12/08 03:04:34;;;;;;;21.27;19.08;;;;;;;4.10;76.14;94730.38;5018477;28;20621;-72
2022/12/08 03:07:07;;;;;;;20.67;18.60;;;;;;;4.09;76.44;94720.56;5035702;28;20182;-71
2022/12/08 03:09:36;;;;;;;21.02;18.92;;;;;;;4.12;76.47;94738.25;5018945;28;20240;-71
2022/12/08 03:12:06;;;;;;;20.63;18.63;;;;;;;4.11;76.39;94729.25;5018262;28;20214;-72
2022/12/08 03:14:34;;;;;;;20.27;18.35;;;;;;;4.15;76.63;94737.63;5035402;28;20199;-71
2022/12/08 03:17:02;;;;;;;21.10;18.98;;;;;;;4.17;76.41;94729.88;5017702;28;20198;-72
2022/12/08 03:19:33;;;;;;;21.13;19.02;;;;;;;4.16;76.21;94729.09;5018083;28;20194;-72
2022/12/08 03:22:02;;;;;;;20.38;18.38;;;;;;;4.10;76.09;94722.19;5035311;28;20248;-72
2022/12/08 03:24:32;;;;;;;21.52;19.23;;;;;;;4.09;76.41;94728.75;5035334;28;20221;-72
2022/12/08 03:27:02;;;;;;;20.52;18.50;;;;;;;4.09;76.54;94724.09;5017508;28;20547;-72
2022/12/08 03:29:29;;;;;;;21.30;19.13;;;;;;;4.07;76.26;94723.63;5014280;28;20234;-71
2022/12/08 03:31:58;;;;;;;21.13;19.02;;;;;;;4.07;76.51;94723.63;5014434;28;20258;-71
2022/12/08 03:34:26;;;;;;;22.27;19.98;;;;;;;4.04;76.22;94734.41;5015244;28;20195;-71
2022/12/08 03:36:53;;;;;;;34.78;29.80;;;;;;;3.96;75.88;94748.81;5015937;28;20214;-71
2022/12/08 03:39:20;;;;;;;33.08;29.55;;;;;;;3.90;75.93;94740.00;5015705;28;20195;-71
2022/12/08 03:41:48;;;;;;;28.25;25.25;;;;;;;3.88;76.11;94736.75;5016002;28;20618;-72
2022/12/08 03:44:15;;;;;;;30.40;27.20;;;;;;;3.90;76.46;94737.25;5014726;28;20206;-71
2022/12/08 03:46:42;;;;;;;30.90;26.55;;;;;;;3.94;76.97;94734.69;5015845;28;20183;-71
2022/12/08 03:49:09;;;;;;;24.33;21.83;;;;;;;3.95;76.72;94739.03;5015536;28;20547;-72
2022/12/08 03:51:36;;;;;;;21.40;19.23;;;;;;;3.93;77.30;94739.34;5015528;28;20266;-72
2022/12/08 03:54:05;;;;;;;20.42;18.08;;;;;;;3.95;77.39;94739.03;5016116;28;20294;-71
2022/12/08 03:56:36;;;;;;;19.63;16.90;;;;;;;3.98;77.86;94738.38;5019627;28;20184;-71
2022/12/08 03:59:05;;;;;;;27.05;21.13;;;;;;;4.01;77.41;94737.75;5019415;28;20187;-72
2022/12/08 04:01:32;;;;;;;23.65;19.80;;;;;;;4.02;76.94;94745.63;5019184;28;20187;-71
2022/12/08 04:03:59;;;;;;;23.77;18.75;;;;;;;4.00;76.57;94747.88;5019195;28;20191;-71
2022/12/08 04:06:26;;;;;;;21.83;18.83;;;;;;;3.98;76.36;94752.03;5034777;28;20536;-71
2022/12/08 04:08:53;;;;;;;21.88;18.02;;;;;;;3.98;76.57;94752.84;5018140;28;20199;-71
2022/12/08 04:11:20;;;;;;;21.90;17.88;;;;;;;4.01;76.63;94754.94;5017987;28;20219;-71
2022/12/08 04:13:47;;;;;;;19.17;16.88;;;;;;;4.03;76.92;94758.16;5019072;28;20202;-71
2022/12/08 04:16:27;;;;;;;19.95;16.95;;;;;;;4.09;76.82;94748.66;5018093;28;20230;-71
2022/12/08 04:19:08;;;;;;;24.35;20.92;;;;;;;4.15;76.97;94738.41;5017873;28;20511;-72
2022/12/08 04:21:35;;;;;;;27.27;24.58;;;;;;;4.21;77.10;94741.78;5018172;28;20214;-72
2022/12/08 04:24:02;;;;;;;23.17;20.77;;;;;;;4.19;76.56;94749.50;5018419;28;20547;-72
2022/12/08 04:26:29;;;;;;;23.13;20.73;;;;;;;4.11;76.14;94748.38;5017779;28;20195;-72
2022/12/08 04:28:56;;;;;;;23.75;21.17;;;;;;;4.12;76.63;94751.91;5032291;28;20243;-72
2022/12/08 04:31:23;;;;;;;23.17;20.88;;;;;;;4.13;76.80;94748.03;5020818;28;20220;-72
2022/12/08 04:33:51;;;;;;;23.52;21.10;;;;;;;4.18;76.88;94756.09;5038155;28;20196;-72
2022/12/08 04:36:18;;;;;;;22.23;19.92;;;;;;;4.24;77.12;94746.59;5038113;28;20691;-72
2022/12/08 04:38:45;;;;;;;22.67;20.38;;;;;;;4.29;76.92;94752.72;5037640;28;20618;-72
2022/12/08 04:41:12;;;;;;;24.02;20.85;;;;;;;4.30;77.12;94758.97;5038120;28;20194;-72
2022/12/08 04:43:39;;;;;;;25.52;22.95;;;;;;;4.27;76.85;94745.97;5020492;28;20210;-72
2022/12/08 04:46:07;;;;;;;29.08;25.98;;;;;;;4.27;76.87;94746.75;5037609;28;20249;-72
2022/12/08 04:48:34;;;;;;;30.55;26.70;;;;;;;4.28;76.97;94745.63;5020533;28;20233;-72
2022/12/08 04:51:02;;;;;;;33.50;29.10;;;;;;;4.27;76.71;94749.50;5020511;28;20199;-72
2022/12/08 04:53:29;;;;;;;32.35;28.85;;;;;;;4.29;77.23;94755.44;5020193;28;20642;-72
2022/12/08 04:55:56;;;;;;;33.92;29.10;;;;;;;4.32;77.39;94757.53;5020439;28;20227;-72
2022/12/08 04:58:23;;;;;;;31.52;28.20;;;;;;;4.38;77.41;94766.34;5038013;28;20190;-72
2022/12/08 05:00:50;;;;;;;27.55;24.80;;;;;;;4.40;77.57;94752.41;5020621;28;20213;-72
2022/12/08 05:03:18;;;;;;;30.65;27.45;;;;;;;4.44;77.30;94758.81;5020284;28;20191;-72
2022/12/08 05:05:45;;;;;;;30.88;27.60;;;;;;;4.48;77.62;94760.59;5019774;28;20198;-72
2022/12/08 05:08:14;;;;;;;33.28;29.40;;;;;;;4.53;77.79;94773.25;5038079;28;20625;-72
2022/12/08 05:10:41;;;;;;;33.80;29.42;;;;;;;4.61;77.95;94760.72;5037540;28;20224;-71
2022/12/08 05:13:08;;;;;;;47.45;42.75;;;;;;;4.62;78.47;94773.28;5019133;28;20423;-73
2022/12/08 05:15:35;;;;;;;37.47;33.63;;;;;;;4.67;78.41;94773.09;5019911;28;20205;-73
2022/12/08 05:18:01;;;;;;;29.88;26.95;;;;;;;4.72;78.34;94768.28;5037112;28;20195;-73
2022/12/08 05:20:28;;;;;;;34.33;30.83;;;;;;;4.68;78.01;94777.44;5020188;28;20203;-73
2022/12/08 05:22:55;;;;;;;36.58;32.85;;;;;;;4.66;78.59;94787.91;5036979;28;20187;-73
2022/12/08 05:25:23;;;;;;;35.80;32.13;;;;;;;4.66;78.47;94788.69;5036669;28;20638;-73
2022/12/08 05:27:50;;;;;;;31.05;27.92;;;;;;;4.67;78.46;94786.75;5036734;28;20650;-73
2022/12/08 05:30:17;;;;;;;31.90;28.77;;;;;;;4.68;78.46;94783.69;5019473;28;20635;-73
2022/12/08 05:32:43;;;;;;;30.85;27.75;;;;;;;4.67;78.33;94793.03;5019536;28;20218;-73
2022/12/08 05:35:11;;;;;;;31.55;28.35;;;;;;;4.67;78.49;94784.84;5019025;28;20199;-74
2022/12/08 05:37:38;;;;;;;30.08;26.98;;;;;;;4.66;78.31;94787.91;5019316;28;20206;-73
2022/12/08 05:40:06;;;;;;;27.55;24.85;;;;;;;4.67;78.55;94786.75;5018883;28;20198;-73
2022/12/08 05:42:34;;;;;;;26.10;23.40;;;;;;;4.67;78.23;94794.97;5036439;28;20190;-74
2022/12/08 05:45:01;;;;;;;24.98;22.38;;;;;;;4.66;78.59;94791.44;5019492;28;20194;-73
2022/12/08 05:47:28;;;;;;;28.40;25.55;;;;;;;4.67;78.25;94803.94;5018593;28;20201;-73
2022/12/08 05:49:54;;;;;;;29.30;26.25;;;;;;;4.62;78.05;94797.88;5036347;28;20191;-73
2022/12/08 05:52:21;;;;;;;27.98;25.17;;;;;;;4.61;78.07;94796.25;5018963;28;20222;-73
2022/12/08 05:54:50;;;;;;;29.05;26.27;;;;;;;4.56;77.79;94797.22;5018938;28;20206;-73
2022/12/08 05:57:17;;;;;;;29.95;27.10;;;;;;;4.51;77.95;94805.56;5036460;28;20178;-73
2022/12/08 05:59:45;;;;;;;29.52;26.48;;;;;;;4.50;78.10;94803.94;5035949;28;20198;-73
2022/12/08 06:02:12;;;;;;;28.90;25.92;;;;;;;4.50;78.62;94809.41;5018774;28;20201;-73
2022/12/08 06:04:39;;;;;;;28.17;24.83;;;;;;;4.56;78.27;94808.94;5035763;28;20183;-73
2022/12/08 06:07:06;;;;;;;25.75;23.13;;;;;;;4.61;78.14;94810.69;5018577;28;20191;-73
2022/12/08 06:09:33;;;;;;;23.25;20.92;;;;;;;4.63;77.97;94807.66;5035740;28;20209;-73
2022/12/08 06:12:00;;;;;;;24.05;21.83;;;;;;;4.66;78.05;94815.22;5035710;28;20211;-73
2022/12/08 06:14:27;;;;;;;25.95;23.42;;;;;;;4.63;77.97;94818.59;5018501;28;20253;-74
2022/12/08 06:16:55;;;;;;;23.95;21.45;;;;;;;4.63;77.95;94813.91;5018569;28;20209;-73
2022/12/08 06:19:22;;;;;;;26.77;24.08;;;;;;;4.61;77.95;94824.34;5018637;28;20206;-73
2022/12/08 06:21:49;;;;;;;23.92;21.40;;;;;;;4.62;78.13;94812.31;5018007;28;20268;-74
2022/12/08 06:24:15;;;;;;;23.35;20.95;;;;;;;4.65;78.55;94825.34;5018286;28;20252;-73
2022/12/08 06:26:43;;;;;;;24.20;20.38;;;;;;;4.66;78.41;94818.75;5018627;28;20210;-73
2022/12/08 06:29:09;;;;;;;22.65;20.55;;;;;;;4.66;78.42;94823.41;5035179;28;20241;-73
2022/12/08 06:31:37;;;;;;;21.77;19.55;;;;;;;4.68;78.63;94818.41;5018313;28;20198;-73
2022/12/08 06:34:06;;;;;;;22.70;20.42;;;;;;;4.74;78.26;94808.94;5034311;28;20305;-74
2022/12/08 06:36:33;;;;;;;23.10;20.67;;;;;;;4.75;78.35;94808.59;5018532;28;20205;-74
2022/12/08 06:39:00;;;;;;;22.45;20.27;;;;;;;4.77;78.53;94808.31;5034630;28;20195;-73
2022/12/08 06:41:27;;;;;;;22.27;20.13;;;;;;;4.81;78.42;94818.25;5035271;28;20197;-73
2022/12/08 06:43:58;;;;;;;24.45;21.95;;;;;;;4.83;78.46;94809.75;5035176;28;20194;-73
2022/12/08 06:46:25;;;;;;;27.33;24.20;;;;;;;4.79;77.97;94808.75;5018006;28;20567;-73
2022/12/08 06:48:51;;;;;;;28.73;25.92;;;;;;;4.74;77.66;94804.28;5035336;28;20204;-73
2022/12/08 06:51:21;;;;;;;29.38;26.27;;;;;;;4.69;78.08;94809.13;5034975;28;20553;-73
2022/12/08 06:53:48;;;;;;;29.42;26.60;;;;;;;4.72;78.31;94805.72;5035543;28;20210;-74
2022/12/08 06:56:18;;;;;;;34.55;31.15;;;;;;;4.71;78.10;94813.09;5035446;28;20550;-74
2022/12/08 06:58:46;;;;;;;32.72;29.50;;;;;;;4.76;78.43;94807.50;5035371;28;20193;-73
2022/12/08 07:01:13;;;;;;;32.83;29.42;;;;;;;4.85;78.41;94810.22;5018377;28;20556;-73
2022/12/08 07:03:42;;;;;;;32.85;29.67;;;;;;;4.92;78.37;94817.94;5017971;28;20530;-73
2022/12/08 07:06:14;;;;;;;31.45;28.25;;;;;;;4.99;78.50;94823.72;5017612;28;20289;-73
2022/12/08 07:08:43;;;;;;;28.17;25.38;;;;;;;5.07;78.15;94831.09;5018416;28;20575;-73
2022/12/08 07:11:11;;;;;;;28.63;25.83;;;;;;;5.16;78.28;94834.63;5018191;28;20595;-73
2022/12/08 07:13:38;;;;;;;26.67;23.98;;;;;;;5.28;78.33;94836.69;5017951;28;20222;-74
2022/12/08 07:16:08;;;;;;;26.13;23.58;;;;;;;5.36;78.12;94835.06;5034406;28;20209;-73
2022/12/08 07:18:35;;;;;;;26.25;23.73;;;;;;;5.43;78.17;94840.84;5032981;28;20206;-73
2022/12/08 07:21:06;;;;;;;25.05;22.70;;;;;;;5.55;77.90;94839.06;5035207;28;20194;-74
2022/12/08 07:23:33;;;;;;;25.30;22.95;;;;;;;5.61;77.81;94836.94;5034825;28;20187;-73
2022/12/08 07:26:03;;;;;;;24.10;21.65;;;;;;;5.69;77.77;94848.97;5017585;28;20203;-73
2022/12/08 07:28:31;;;;;;;24.60;22.00;;;;;;;5.69;77.35;94860.72;5034543;28;20242;-74
2022/12/08 07:30:57;;;;;;;24.23;21.73;;;;;;;5.71;77.12;94855.72;5021753;28;20194;-74
2022/12/08 07:33:24;;;;;;;24.65;22.33;;;;;;;5.76;77.54;94852.00;5021878;28;20214;-74
2022/12/08 07:35:55;;;;;;;23.40;21.02;;;;;;;5.84;77.23;94858.56;5038792;28;20268;-74
2022/12/08 07:38:21;;;;;;;22.23;20.13;;;;;;;5.96;77.10;94854.06;5037833;28;20205;-74
2022/12/08 07:40:48;;;;;;;22.85;20.58;;;;;;;6.07;76.96;94861.91;5021357;28;20198;-73
2022/12/08 07:43:17;;;;;;;21.40;19.30;;;;;;;6.06;76.38;94863.81;5038817;28;20186;-73
2022/12/08 07:45:45;;;;;;;21.33;19.23;;;;;;;5.96;76.02;94861.47;5021510;28;20198;-74
2022/12/08 07:48:11;;;;;;;21.23;19.08;;;;;;;5.94;75.78;94853.56;5038523;28;20206;-73
2022/12/08 07:50:39;;;;;;;20.55;18.63;;;;;;;5.92;76.09;94857.72;5038859;28;20186;-73
2022/12/08 07:53:06;;;;;;;22.20;20.00;;;;;;;5.89;76.13;94858.41;5021507;28;20222;-73
2022/12/08 07:55:33;;;;;;;21.77;19.65;;;;;;;5.86;76.38;94853.59;5038739;28;20202;-73
2022/12/08 07:57:59;;;;;;;22.02;19.83;;;;;;;5.84;76.73;94853.91;5038672;28;20261;-73
2022/12/08 08:00:28;;;;;;;22.98;20.67;;;;;;;5.86;76.61;94856.31;5021141;28;20527;-73
2022/12/08 08:02:55;;;;;;;22.92;20.70;;;;;;;5.85;76.57;94855.53;5021299;28;20198;-73
2022/12/08 08:05:22;;;;;;;22.65;20.48;;;;;;;5.82;76.30;94849.91;5021154;28;20190;-73
2022/12/08 08:07:49;;;;;;;23.88;21.50;;;;;;;5.84;76.25;94856.63;5021250;28;20198;-74
2022/12/08 08:10:16;;;;;;;23.52;21.13;;;;;;;5.88;76.46;94860.34;5020948;28;20190;-73
2022/12/08 08:12:42;;;;;;;24.27;21.80;;;;;;;5.88;76.34;94857.63;5021164;28;20218;-73
2022/12/08 08:15:10;;;;;;;24.60;22.10;;;;;;;5.91;76.40;94850.66;5038468;28;20190;-73
2022/12/08 08:17:38;;;;;;;27.92;25.13;;;;;;;5.93;76.47;94851.19;5021535;28;20206;-73
2022/12/08 08:20:08;;;;;;;29.15;26.23;;;;;;;5.99;76.07;94844.38;5038178;28;20190;-73
2022/12/08 08:22:35;;;;;;;27.75;24.90;;;;;;;6.03;76.09;94851.63;5020641;28;20203;-73
2022/12/08 08:25:02;;;;;;;28.80;26.00;;;;;;;6.03;76.08;94857.09;5021129;28;20207;-73
2022/12/08 08:27:28;;;;;;;28.00;25.20;;;;;;;6.09;76.38;94856.91;5037735;28;20193;-73
2022/12/08 08:29:55;;;;;;;29.20;26.10;;;;;;;6.14;76.24;94862.19;5038202;28;20260;-73
2022/12/08 08:32:22;;;;;;;28.63;25.67;;;;;;;6.18;76.33;94858.47;5020218;28;20210;-73
2022/12/08 08:34:51;;;;;;;27.85;25.15;;;;;;;6.19;76.19;94856.53;5037789;28;20493;-73
2022/12/08 08:37:18;;;;;;;28.38;25.67;;;;;;;6.19;76.41;94860.06;5038196;28;20187;-73
2022/12/08 08:39:44;;;;;;;28.70;25.85;;;;;;;6.21;76.14;94852.34;5037421;28;20529;-73
2022/12/08 08:42:11;;;;;;;28.42;25.63;;;;;;;6.20;75.91;94845.22;5020515;28;20210;-73
2022/12/08 08:44:39;;;;;;;29.35;26.50;;;;;;;6.20;76.12;94839.75;5038119;28;20179;-73
2022/12/08 08:47:06;;;;;;;29.83;26.92;;;;;;;6.21;76.06;94852.34;5021269;28;20635;-73
2022/12/08 08:49:32;;;;;;;30.00;27.17;;;;;;;6.21;76.00;94840.59;5037351;28;20516;-73
2022/12/08 08:52:01;;;;;;;30.83;27.80;;;;;;;6.23;76.09;94841.03;5020795;28;20210;-73
2022/12/08 08:54:29;;;;;;;31.00;27.90;;;;;;;6.26;76.27;94851.34;5038262;28;20198;-73
2022/12/08 08:56:57;;;;;;;30.38;27.48;;;;;;;6.31;76.24;94847.59;5037938;28;20198;-73
2022/12/08 08:59:24;;;;;;;29.75;26.85;;;;;;;6.33;76.29;94843.41;5020421;28;20214;-73
2022/12/08 09:01:51;;;;;;;30.60;27.52;;;;;;;6.37;75.90;94836.13;5038483;28;20298;-73
2022/12/08 09:04:17;;;;;;;32.35;28.52;;;;;;;6.39;76.04;94839.34;5038067;28;20187;-73
2022/12/08 09:06:44;;;;;;;33.15;29.02;;;;;;;6.39;75.44;94831.13;5020652;28;20191;-73
2022/12/08 09:09:12;;;;;;;34.55;30.33;;;;;;;6.40;75.79;94826.44;5038073;28;20187;-73
2022/12/08 09:11:39;;;;;;;35.28;31.48;;;;;;;6.47;75.61;94830.25;5020405;28;20201;-73
2022/12/08 09:14:06;;;;;;;39.10;32.13;;;;;;;6.55;76.05;94823.13;5020220;28;20222;-73
2022/12/08 09:16:33;;;;;;;38.75;31.83;;;;;;;6.62;75.43;94831.59;5038301;28;20191;-73
2022/12/08 09:19:01;;;;;;;35.05;30.38;;;;;;;6.71;75.62;94828.78;5020726;28;20269;-73
2022/12/08 09:21:27;;;;;;;33.50;30.00;;;;;;;6.90;75.67;94825.56;5037512;28;20701;-73
2022/12/08 09:23:57;;;;;;;34.50;30.50;;;;;;;7.09;75.14;94819.63;5037250;28;20202;-73
2022/12/08 09:26:25;;;;;;;35.78;32.03;;;;;;;7.19;74.39;94821.97;5019920;28;20636;-73
2022/12/08 09:28:54;;;;;;;32.88;29.50;;;;;;;7.31;74.27;94826.69;5037221;28;20319;-73
2022/12/08 09:31:22;;;;;;;33.00;29.42;;;;;;;7.55;74.34;94820.44;5037298;28;20182;-73
2022/12/08 09:33:50;;;;;;;34.47;30.85;;;;;;;7.84;73.55;94816.72;5037150;28;20203;-73
2022/12/08 09:36:17;;;;;;;32.33;29.05;;;;;;;8.09;72.67;94812.84;5019552;28;20213;-74
2022/12/08 09:38:45;;;;;;;31.95;28.75;;;;;;;8.27;71.30;94807.13;5037005;28;20494;-73
2022/12/08 09:41:16;;;;;;;31.02;27.90;;;;;;;8.38;70.15;94805.53;5036829;28;20183;-73
2022/12/08 09:43:54;;;;;;;29.90;26.58;;;;;;;8.54;69.55;94805.66;5019417;28;20198;-73
2022/12/08 09:46:21;;;;;;;28.15;25.20;;;;;;;8.81;69.68;94798.59;5036264;28;20190;-73
2022/12/08 09:48:54;;;;;;;29.50;26.50;;;;;;;9.05;68.88;94795.75;5037068;28;20198;-73
2022/12/08 09:51:24;;;;;;;26.65;23.85;;;;;;;9.11;68.05;94788.88;5018584;28;20202;-73
2022/12/08 09:53:55;;;;;;;26.58;23.98;;;;;;;9.11;67.54;94783.38;5019117;28;20281;-73
2022/12/08 09:56:24;;;;;;;27.83;24.92;;;;;;;9.08;67.03;94783.28;5036557;28;20209;-73
2022/12/08 09:58:54;;;;;;;23.77;21.30;;;;;;;9.10;67.31;94764.44;5036594;28;20595;-73
2022/12/08 10:01:22;;;;;;;24.92;22.33;;;;;;;9.26;67.58;94779.06;5036468;28;20190;-73
2022/12/08 10:03:49;;;;;;;23.58;20.92;;;;;;;9.31;67.07;94770.53;5019033;28;20209;-73
2022/12/08 10:06:20;;;;;;;24.63;20.65;;;;;;;9.42;67.12;94772.78;5018857;28;20190;-73
2022/12/08 10:08:54;;;;;;;23.75;21.25;;;;;;;9.50;66.72;94767.09;5018499;28;20198;-73
2022/12/08 10:11:25;;;;;;;27.30;20.63;;;;;;;9.65;66.36;94766.31;5018971;28;20215;-73
2022/12/08 10:13:58;;;;;;;22.40;20.02;;;;;;;9.80;65.89;94759.25;5018819;28;20222;-73
2022/12/08 10:16:33;;;;;;;23.10;19.90;;;;;;;9.95;64.67;94757.63;5018855;28;20197;-74
2022/12/08 10:19:03;;;;;;;22.05;19.60;;;;;;;10.00;64.43;94745.53;5018750;28;20201;-74
2022/12/08 10:21:31;;;;;;;22.13;19.73;;;;;;;9.92;64.26;94752.81;5018775;28;20202;-73
2022/12/08 10:24:00;;;;;;;19.85;17.83;;;;;;;9.84;64.56;94748.28;5035392;28;20205;-73
2022/12/08 10:26:31;;;;;;;15.27;13.68;;;;;;;9.73;64.31;94742.53;5036386;28;20198;-73
2022/12/08 10:29:01;;;;;;;16.60;14.90;;;;;;;9.70;64.65;94742.44;5011834;28;20248;-74
2022/12/08 10:31:30;;;;;;;15.90;14.27;;;;;;;9.71;64.86;94739.31;4995712;28;20196;-74
2022/12/08 10:33:59;;;;;;;14.48;13.05;;;;;;;9.68;64.78;94747.50;4995452;28;20219;-74
2022/12/08 10:36:51;;;;;;;13.13;11.82;;;;;;;9.61;64.65;94737.88;4995502;28;20200;-74
2022/12/08 10:39:31;;;;;;;13.20;11.80;;;;;;;9.59;65.07;94731.94;4996256;28;20605;-73
2022/12/08 10:42:02;;;;;;;13.48;12.23;;;;;;;9.63;64.99;94730.09;5011488;28;20200;-74
2022/12/08 10:44:30;;;;;;;14.57;12.88;;;;;;;9.65;65.24;94732.47;4995760;28;20207;-73
2022/12/08 10:46:57;;;;;;;15.48;13.95;;;;;;;9.59;65.17;94731.16;4996204;28;20604;-73
2022/12/08 10:49:27;;;;;;;15.73;14.10;;;;;;;9.53;64.86;94718.81;5012071;28;20203;-74
2022/12/08 10:51:55;;;;;;;14.98;13.43;;;;;;;9.56;65.17;94721.66;4996044;28;20289;-74
2022/12/08 10:54:27;;;;;;;14.07;12.77;;;;;;;9.61;65.24;94715.84;4995192;28;20211;-74
2022/12/08 10:56:55;;;;;;;13.90;12.35;;;;;;;9.70;65.27;94718.44;4995751;28;20238;-74
2022/12/08 10:59:24;;;;;;;14.52;13.02;;;;;;;9.73;65.20;94711.41;4995215;28;20231;-74
2022/12/08 11:01:53;;;;;;;14.13;11.63;;;;;;;9.85;64.63;94703.06;4995146;28;20199;-74
2022/12/08 11:04:22;;;;;;;14.32;12.13;;;;;;;10.04;64.89;94708.63;4994802;28;20219;-74
2022/12/08 11:06:49;;;;;;;14.80;12.20;;;;;;;10.25;64.08;94699.28;4995103;28;20208;-74
2022/12/08 11:09:26;;;;;;;13.25;11.88;;;;;;;10.56;63.81;94699.19;4994986;28;20215;-74
2022/12/08 11:11:55;;;;;;;13.45;12.05;;;;;;;10.83;63.46;94693.84;4995184;28;20299;-74
2022/12/08 11:14:25;;;;;;;12.32;10.95;;;;;;;10.91;62.39;94695.56;4994994;28;20274;-74
2022/12/08 11:16:56;;;;;;;14.25;11.30;;;;;;;10.86;61.58;94673.78;4995486;28;20210;-73
2022/12/08 11:19:27;;;;;;;11.55;10.35;;;;;;;10.96;61.54;94670.44;4995481;28;20212;-75
2022/12/08 11:21:54;;;;;;;12.95;11.35;;;;;;;11.23;61.77;94667.78;4996150;28;20180;-76
2022/12/08 11:24:24;;;;;;;11.48;9.90;;;;;;;11.45;60.96;94675.28;4996725;28;20192;-75
2022/12/08 11:26:54;;;;;;;12.90;10.80;;;;;;;11.76;60.12;94671.47;5013324;28;20204;-75
2022/12/08 11:29:21;;;;;;;12.18;10.77;;;;;;;12.09;58.60;94663.69;5029698;28;20245;-75
2022/12/08 11:31:50;;;;;;;14.30;11.50;;;;;;;12.25;57.76;94667.09;5017980;28;20198;-75
2022/12/08 11:34:21;;;;;;;12.65;10.70;;;;;;;12.18;57.76;94656.72;5017884;28;20228;-75
2022/12/08 11:36:48;;;;;;;13.10;11.25;;;;;;;12.11;57.79;94651.09;5035579;28;20240;-73